Airfield :
LOGIN :

Register | Disclaimer

   EN    FR    IT 

 










Legend :    VFR   Marginal VFR   IFR   Intensive IFR   Very Intensive IFR
Visi :
Ceiling :
>= 8 km
>= 3000ft
5 to 8 km
1000 to 3000 ft
1500m to 5 km
500 to 1000 ft
800 to 1500m
200 to 500 ft
< 800m
< 200 ft
Symbols :   Thunderstorms  Fog  Heavy snow  Heavy precipitations  Wind > 20 kt
SIGMETs :     Misc.  Thunderstorms  Icing  Turbulence  Mountain Waves  Volcanic Ashes






- Airport Elevation : 37 ft


EHVL - Vlieland Heliport

CURRENT METAR :
  • 301003Z AUTO 29033KT 7000 HZ FEW024 BKN027 BKN031 08/03 Q1013 WHT

EXPIRED METARs :
  • 300955Z AUTO 29032KT 7000 HZ FEW023 SCT028 BKN032 08/04 Q1013 WHT
  • 300925Z AUTO 29034KT 8000 HZ FEW026 SCT030 BKN034 07/03 Q1013 BLU
  • 300906Z AUTO 29033G43KT 8000 HZ FEW045 BKN049 BKN054 08/03 Q1013 BLU
  • 300855Z AUTO 29033KT 8000 HZ FEW023 BKN048 07/03 Q1013 BLU
  • 300850Z AUTO 28033KT 8000 HZ FEW023 SCT027 BKN047 07/03 Q1012 BLU
  • 300839Z AUTO 28031KT 8000 HZ SCT025 SCT030 BKN035 07/04 Q1012 BLU
  • 300825Z AUTO 28033KT 8000 HZ FEW023 SCT027 BKN032 07/03 Q1013 BLU
  • 300809Z AUTO 28032KT 8000 HZ FEW023 SCT026 BKN029 07/03 Q1012 BLU
  • 300755Z AUTO 28035KT 8000 HZ FEW023 SCT035 BKN041 07/03 Q1012 BLU

Expired Forecast.



MET'MAP, your aeronautical weather chart ! - Copyright ORBIFLY December 2007 - Disclaimer

ORBIFLY MET'MAP TEAM :

Programming & Development : Alexandra Zaïnal
Original concept : Baudouin d'Aumeries
Technical & hardware support : Manuel Goepfert
Assistance : Marc-Olivier Méhu




SOURCES & CREDITS :

   NOAA